メインページ
METAR-TAF:

METAR-TAF

空港 :

イスラマバード, パキスタン

ベナジル・ブット国際空港

緯度: 33-37N, 経度: 073-06E, 海抜: 507m

現時点の気象観測

当レポートは33分前の16:00(UTC)に作成
の風 10kt
気温 30°C
湿度 52%
気圧 1003 hPa
視程10km以上
高度4500ftの雲はほとんどない

METAR: OPRN 221600Z 18010KT 9999 FEW045 30/19 Q1003.9/29.65

時間: 21:33 (16:33 UTC)

予報

当レポートは7時間3分前の09:30(UTC)に作成
予報は22日の 12時(UTC)から 23日の 18時(UTC)まで有効
南東の風 10kt、最大20ktの突風を伴う
視程: 8000m
高度3000ftの雲はほとんどない, 塔状積雲.
高度4000ftの雲は散在している
23日の 09時(UTC)から 23日の 12時(UTC)まで一時的に
南東の風 10kt、最大25ktの突風を伴う
視程: 4000m
高度3000ftの雲はほとんどない, 積乱雲.
高度4000ftの雲は散在している
激しい雷雨, 雨

TAF: OPRN 220930Z 2212/2318 13010G20KT 8000 FEW030TCU SCT040 TEMPO 2309/2312 13010G25KT 4000 TSRA FEW030CB SCT040

4,000以上の空港の気象観測と天気予報(METAR報とTAF報)

利用可能な観測所は地図上に黄色い丸と赤い丸で示す。

丸の上にカーソルを重ねると観測所名を参照できる。

次にクリックすると気象観測と天気予報を参照できる。

マップの切り替え:黒色「×」印の緑ボタンをクリックして拡大、「-」印の緑ボタンをクリックして縮小、緑色の三角印をクリックして隣りの地図に切り替え


METAR-TAF: